Time;durP1;ratioP1;P1;durP2;ratioP2;P2;SDS_P1;SDS_P2;PMS_P1;PMS_P2;Temp;Humidity;BMP_temperature;BMP_pressure;BME280_temperature;BME280_humidity;BME280_pressure;Samples;Min_cycle;Max_cycle;Signal;HPM_P1;HPM_P2
2022/07/17 00:00:42;;;;;;;7.10;3.17;;;;;;;13.12;100.00;102750.09;2614295;31;20566;-49
2022/07/17 00:03:10;;;;;;;9.05;3.88;;;;;;;13.05;100.00;102743.38;2614657;36;20039;-49
2022/07/17 00:05:42;;;;;;;5.13;3.00;;;;;;;13.05;100.00;102743.38;2613621;36;20417;-50
2022/07/17 00:08:11;;;;;;;6.55;2.97;;;;;;;13.05;100.00;102727.16;2614497;36;20307;-47
2022/07/17 00:10:42;;;;;;;7.05;2.45;;;;;;;13.05;100.00;102733.41;2614695;36;20830;-47
2022/07/17 00:13:12;;;;;;;5.65;2.20;;;;;;;13.09;100.00;102734.94;2613911;36;20034;-48
2022/07/17 00:15:40;;;;;;;;;;;;;;;12.97;100.00;102736.66;2614628;36;20033;-49
2022/07/17 00:18:09;;;;;;;5.88;1.95;;;;;;;12.92;100.00;102738.78;2614397;36;20508;-52
2022/07/17 00:20:38;;;;;;;4.30;1.90;;;;;;;12.91;100.00;102733.50;2614266;36;20034;-49
2022/07/17 00:23:09;;;;;;;4.45;2.30;;;;;;;12.91;100.00;102730.78;2614237;31;20035;-50
2022/07/17 00:25:37;;;;;;;4.78;2.33;;;;;;;12.87;100.00;102730.16;2614072;36;20038;-47
2022/07/17 00:28:06;;;;;;;5.72;1.95;;;;;;;12.78;100.00;102728.09;2614629;31;20046;-52
2022/07/17 00:30:35;;;;;;;5.60;2.10;;;;;;;12.69;100.00;102725.97;2611791;36;20615;-50
2022/07/17 00:33:03;;;;;;;2.58;1.80;;;;;;;12.64;100.00;102725.44;2613853;36;20035;-50
2022/07/17 00:35:32;;;;;;;3.10;1.93;;;;;;;12.58;100.00;102719.47;2613727;36;20057;-48
2022/07/17 00:38:00;;;;;;;5.53;2.25;;;;;;;12.57;100.00;102719.56;2615578;36;20431;-49
2022/07/17 00:40:34;;;;;;;6.38;2.20;;;;;;;12.60;100.00;102722.94;2615631;36;20065;-48
2022/07/17 00:43:03;;;;;;;7.20;2.40;;;;;;;12.55;100.00;102725.09;2615046;36;20038;-50
2022/07/17 00:45:34;;;;;;;4.07;2.00;;;;;;;12.50;100.00;102723.66;2614160;36;20126;-49
2022/07/17 00:48:04;;;;;;;3.03;2.10;;;;;;;12.47;100.00;102716.66;2614842;36;20861;-51
2022/07/17 00:50:37;;;;;;;3.55;1.80;;;;;;;12.44;100.00;102715.00;2612458;36;20077;-51
2022/07/17 00:53:07;;;;;;;6.82;1.90;;;;;;;12.49;100.00;102719.25;2614672;36;20036;-50
2022/07/17 00:55:38;;;;;;;3.05;1.98;;;;;;;12.44;100.00;102717.72;2614936;36;20030;-48
2022/07/17 00:58:08;;;;;;;3.92;1.80;;;;;;;12.43;100.00;102720.53;2613898;36;20058;-48
2022/07/17 01:00:37;;;;;;;;;;;;;;;12.46;100.00;102724.84;2613854;36;20057;-51
2022/07/17 01:03:11;;;;;;;2.13;1.80;;;;;;;12.40;100.00;102720.72;2613862;36;20416;-50
2022/07/17 01:05:39;;;;;;;2.75;1.60;;;;;;;12.34;100.00;102721.13;2612736;36;20034;-48
2022/07/17 01:08:08;;;;;;;5.60;1.97;;;;;;;12.36;100.00;102730.00;2614280;36;20539;-49
2022/07/17 01:10:39;;;;;;;2.97;1.90;;;;;;;12.31;100.00;102722.19;2613918;31;20030;-51
2022/07/17 01:13:08;;;;;;;4.20;1.90;;;;;;;12.25;100.00;102723.47;2610949;31;21089;-49
2022/07/17 01:15:40;;;;;;;4.30;2.28;;;;;;;12.24;100.00;102720.88;2611973;36;20522;-47
2022/07/17 01:18:10;;;;;;;3.25;2.00;;;;;;;12.31;100.00;102726.72;2612006;31;20058;-48
2022/07/17 01:20:41;;;;;;;3.75;2.03;;;;;;;12.31;100.00;102729.41;2608981;36;20050;-49
2022/07/17 01:23:12;;;;;;;4.55;2.10;;;;;;;12.36;100.00;102730.00;2608563;36;20626;-51
2022/07/17 01:25:41;;;;;;;4.25;2.33;;;;;;;12.26;100.00;102729.72;2610943;36;20061;-49
2022/07/17 01:28:09;;;;;;;8.18;2.45;;;;;;;12.20;100.00;102743.63;2610482;36;20034;-49
2022/07/17 01:30:38;;;;;;;2.72;1.80;;;;;;;12.09;100.00;102733.53;2611634;36;20074;-48
2022/07/17 01:33:06;;;;;;;2.70;2.30;;;;;;;11.97;100.00;102740.59;2613554;36;20046;-47
2022/07/17 01:35:35;;;;;;;3.88;2.03;;;;;;;11.99;100.00;102729.72;2611761;36;20034;-52
2022/07/17 01:38:03;;;;;;;5.23;2.20;;;;;;;11.92;100.00;102738.19;2611779;36;20039;-47
2022/07/17 01:40:34;;;;;;;6.53;2.15;;;;;;;11.83;100.00;102730.66;2614207;36;20042;-48
2022/07/17 01:43:02;;;;;;;2.65;2.10;;;;;;;11.77;100.00;102733.75;2613985;36;20034;-47
2022/07/17 01:45:31;;;;;;;4.40;2.00;;;;;;;11.83;100.00;102733.34;2612897;36;20053;-47
2022/07/17 01:47:59;;;;;;;4.93;2.20;;;;;;;11.85;100.00;102731.44;2614116;36;20038;-48
2022/07/17 01:50:28;;;;;;;3.92;1.90;;;;;;;11.73;100.00;102733.09;2612424;36;20447;-50
2022/07/17 01:52:56;;;;;;;;;;;;;;;11.67;100.00;102732.59;2613734;36;20034;-48
2022/07/17 01:55:25;;;;;;;3.50;1.80;;;;;;;11.67;100.00;102724.50;2613119;36;19947;-50
2022/07/17 01:57:55;;;;;;;2.63;1.90;;;;;;;11.68;100.00;102729.81;2613927;36;20053;-49
2022/07/17 02:00:25;;;;;;;4.25;2.15;;;;;;;11.80;100.00;102728.16;2614915;31;20023;-49
2022/07/17 02:02:54;;;;;;;3.72;1.75;;;;;;;11.77;100.00;102722.97;2613624;36;20030;-50
2022/07/17 02:05:23;;;;;;;6.00;2.40;;;;;;;11.71;100.00;102712.56;2613776;36;20662;-47
2022/07/17 02:07:53;;;;;;;6.28;1.98;;;;;;;11.75;100.00;102719.50;2613561;36;20947;-51
2022/07/17 02:10:22;;;;;;;6.10;1.88;;;;;;;11.77;100.00;102712.16;2613653;36;20062;-52
2022/07/17 02:12:50;;;;;;;3.85;1.70;;;;;;;11.83;100.00;102716.31;2612922;36;20039;-49
2022/07/17 02:15:21;;;;;;;3.72;1.85;;;;;;;11.83;100.00;102717.16;2613795;36;20034;-48
2022/07/17 02:17:51;;;;;;;3.63;1.60;;;;;;;11.79;100.00;102721.00;2613829;31;20037;-49
2022/07/17 02:20:20;;;;;;;3.42;1.35;;;;;;;11.81;100.00;102721.81;2614220;31;20069;-48
2022/07/17 02:22:48;;;;;;;5.68;1.88;;;;;;;11.79;100.00;102715.63;2614587;36;20467;-48
2022/07/17 02:25:17;;;;;;;5.93;1.85;;;;;;;11.75;100.00;102724.91;2613114;36;20050;-49
2022/07/17 02:27:45;;;;;;;4.55;1.63;;;;;;;11.78;100.00;102729.22;2613760;36;20606;-47
2022/07/17 02:30:16;;;;;;;2.60;1.60;;;;;;;11.85;100.00;102738.66;2613063;36;20038;-52
2022/07/17 02:32:47;;;;;;;4.63;2.05;;;;;;;11.87;100.00;102739.44;2613598;36;20065;-52
2022/07/17 02:35:17;;;;;;;6.60;2.00;;;;;;;11.70;100.00;102753.97;2613902;36;20545;-47
2022/07/17 02:37:45;;;;;;;2.72;1.60;;;;;;;11.65;100.00;102745.31;2614031;36;20061;-50
2022/07/17 02:40:14;;;;;;;3.92;1.58;;;;;;;11.61;100.00;102733.00;2612705;31;20023;-50
2022/07/17 02:42:43;;;;;;;2.95;1.52;;;;;;;11.62;100.00;102749.06;2614845;36;20059;-51
2022/07/17 02:45:12;;;;;;;2.30;1.70;;;;;;;11.65;100.00;102745.31;2614334;36;20034;-48
2022/07/17 02:47:40;;;;;;;;;;;;;;;11.62;100.00;102745.53;2615892;31;20585;-51
2022/07/17 02:50:12;;;;;;;4.18;1.98;;;;;;;11.51;100.00;102738.97;2630701;36;19947;-50
2022/07/17 02:52:40;;;;;;;3.47;1.60;;;;;;;11.49;100.00;102735.50;2604617;36;20030;-50
2022/07/17 02:55:10;;;;;;;5.03;1.83;;;;;;;11.54;100.00;102738.78;2612901;36;22041;-47
2022/07/17 02:57:39;;;;;;;4.25;1.80;;;;;;;11.57;100.00;102735.88;2614533;36;20031;-48
2022/07/17 03:00:12;;;;;;;3.15;1.50;;;;;;;11.60;100.00;102736.66;2614337;36;20041;-49
2022/07/17 03:02:40;;;;;;;2.95;1.77;;;;;;;11.57;100.00;102738.59;2614637;36;20045;-48
2022/07/17 03:05:11;;;;;;;3.63;1.80;;;;;;;11.54;100.00;102727.09;2614613;36;20068;-47
2022/07/17 03:07:42;;;;;;;3.15;1.63;;;;;;;11.50;100.00;102729.13;2613953;36;20038;-48
2022/07/17 03:10:11;;;;;;;2.00;1.60;;;;;;;11.49;100.00;102723.84;2614582;31;20128;-48
2022/07/17 03:12:39;;;;;;;4.65;1.52;;;;;;;11.51;100.00;102716.50;2614459;31;20053;-48
2022/07/17 03:15:09;;;;;;;3.38;1.50;;;;;;;11.51;100.00;102712.00;2614773;31;20451;-51
2022/07/17 03:17:37;;;;;;;;;;;;;;;11.47;100.00;102712.28;2615173;36;20034;-48
2022/07/17 03:20:06;;;;;;;6.10;1.48;;;;;;;11.46;100.00;102711.41;2615204;36;19950;-50
2022/07/17 03:22:37;;;;;;;5.55;1.92;;;;;;;11.40;100.00;102709.09;2614614;36;20057;-50
2022/07/17 03:25:06;;;;;;;5.15;1.83;;;;;;;11.40;100.00;102725.28;2614485;36;20081;-49
2022/07/17 03:27:35;;;;;;;2.47;1.50;;;;;;;11.40;100.00;102726.13;2613898;36;20065;-50
2022/07/17 03:30:03;;;;;;;5.32;1.90;;;;;;;11.43;100.00;102735.03;2614216;36;20038;-47
2022/07/17 03:32:31;;;;;;;4.80;1.55;;;;;;;11.49;100.00;102729.25;2613147;36;20081;-49
2022/07/17 03:35:01;;;;;;;2.30;1.40;;;;;;;11.45;100.00;102733.09;2614160;36;20447;-50
2022/07/17 03:37:29;;;;;;;4.40;1.65;;;;;;;11.28;100.00;102736.81;2612988;36;20030;-51
2022/07/17 03:40:00;;;;;;;3.83;1.33;;;;;;;11.28;100.00;102731.41;2613963;36;20038;-51
2022/07/17 03:42:29;;;;;;;3.63;1.70;;;;;;;11.29;100.00;102730.47;2614848;36;20030;-49
2022/07/17 03:44:57;;;;;;;4.60;1.70;;;;;;;11.38;100.00;102737.97;2614191;31;20085;-50
2022/07/17 03:47:26;;;;;;;2.80;1.70;;;;;;;11.42;100.00;102739.53;2614038;36;20038;-50
2022/07/17 03:49:54;;;;;;;6.22;1.92;;;;;;;11.42;100.00;102739.53;2614748;36;20058;-53
2022/07/17 03:52:22;;;;;;;2.78;1.50;;;;;;;11.33;100.00;102729.31;2612118;36;20038;-47
2022/07/17 03:54:50;;;;;;;5.28;1.83;;;;;;;11.42;100.00;102746.75;2614168;36;20065;-49
2022/07/17 03:57:21;;;;;;;2.58;1.58;;;;;;;11.51;100.00;102752.47;2614421;36;20065;-49
2022/07/17 03:59:50;;;;;;;3.35;1.70;;;;;;;11.62;100.00;102761.72;2613940;36;20034;-49
2022/07/17 04:02:18;;;;;;;3.50;1.52;;;;;;;11.71;100.00;102761.13;2613858;36;20061;-48
2022/07/17 04:04:46;;;;;;;3.30;1.67;;;;;;;11.80;100.00;102757.81;2614453;36;20069;-50
2022/07/17 04:09:59;;;;;;;3.05;1.23;;;;;;;11.85;100.00;102753.03;2614581;36;20519;-51
2022/07/17 04:12:30;;;;;;;4.45;1.27;;;;;;;12.02;100.00;102749.25;2614184;36;20044;-49
2022/07/17 04:14:58;;;;;;;5.82;1.58;;;;;;;12.08;100.00;102742.59;2615155;36;20038;-47
2022/07/17 04:17:27;;;;;;;3.38;1.63;;;;;;;12.01;100.00;102747.50;2615577;36;20030;-49
2022/07/17 04:19:55;;;;;;;2.65;1.48;;;;;;;11.97;100.00;102761.31;2615454;36;20034;-49
2022/07/17 04:22:24;;;;;;;2.40;1.45;;;;;;;12.04;100.00;102760.84;2614296;36;20077;-50
2022/07/17 04:24:52;;;;;;;6.90;1.50;;;;;;;12.06;100.00;102760.75;2614027;36;20038;-50
2022/07/17 04:27:21;;;;;;;4.75;1.48;;;;;;;12.04;100.00;102762.66;2614827;36;20041;-48
2022/07/17 04:29:52;;;;;;;3.08;1.50;;;;;;;12.07;100.00;102768.72;2615186;36;20034;-49
2022/07/17 04:32:20;;;;;;;4.13;1.80;;;;;;;11.99;100.00;102764.78;2614372;31;20583;-51
2022/07/17 04:34:50;;;;;;;3.30;1.30;;;;;;;12.05;100.00;102761.69;2614889;36;20038;-54
2022/07/17 04:37:18;;;;;;;7.10;1.65;;;;;;;12.16;100.00;102774.47;2615781;31;20038;-48
2022/07/17 04:39:47;;;;;;;3.05;1.50;;;;;;;12.18;100.00;102762.63;2614583;36;20053;-50
2022/07/17 04:42:15;;;;;;;1.95;1.20;;;;;;;12.21;100.00;102762.44;2615067;31;20099;-51
2022/07/17 04:44:43;;;;;;;3.28;1.48;;;;;;;12.28;100.00;102757.50;2614531;36;20038;-49
2022/07/17 04:47:14;;;;;;;1.58;1.30;;;;;;;12.30;100.00;102752.84;2614410;36;20069;-50
2022/07/17 04:49:42;;;;;;;3.00;1.38;;;;;;;12.21;100.00;102748.94;2614177;36;20069;-50
2022/07/17 04:52:11;;;;;;;3.42;1.30;;;;;;;12.22;100.00;102753.38;2614154;36;20086;-47
2022/07/17 04:54:39;;;;;;;3.90;1.50;;;;;;;12.22;100.00;102747.97;2614267;36;20030;-48
2022/07/17 04:57:07;;;;;;;4.25;1.20;;;;;;;12.24;100.00;102745.16;2614891;31;20041;-49
2022/07/17 04:59:36;;;;;;;2.78;1.38;;;;;;;12.37;100.00;102742.53;2614804;36;20065;-52
2022/07/17 05:02:05;;;;;;;;;;;;;;;12.42;100.00;102751.19;2614028;31;20061;-51
2022/07/17 05:04:36;;;;;;;3.78;1.05;;;;;;;12.34;100.00;102742.75;2615107;36;20427;-49
2022/07/17 05:07:04;;;;;;;4.82;2.75;;;;;;;12.35;100.00;102739.06;2614026;36;20034;-45
2022/07/17 05:09:32;;;;;;;4.73;1.33;;;;;;;12.37;100.00;102731.72;2614636;31;20041;-51
2022/07/17 05:12:01;;;;;;;1.63;1.17;;;;;;;12.54;100.00;102734.16;2616386;36;20628;-53
2022/07/17 05:14:29;;;;;;;3.35;1.30;;;;;;;12.60;100.00;102727.47;2615422;36;20035;-51
2022/07/17 05:16:58;;;;;;;4.80;1.23;;;;;;;12.80;100.00;102734.22;2633734;36;20232;-48
2022/07/17 05:19:26;;;;;;;4.80;1.20;;;;;;;12.84;100.00;102735.75;2615182;36;20299;-50
2022/07/17 05:21:57;;;;;;;2.97;1.33;;;;;;;12.87;100.00;102738.25;2614778;36;20311;-48
2022/07/17 05:24:25;;;;;;;2.08;1.30;;;;;;;12.99;100.00;102741.94;2613471;36;20034;-51
2022/07/17 05:26:53;;;;;;;4.85;1.40;;;;;;;12.97;100.00;102733.94;2614012;36;20054;-47
2022/07/17 05:29:22;;;;;;;4.32;1.13;;;;;;;12.96;100.00;102740.31;2615307;36;20034;-49
2022/07/17 05:31:51;;;;;;;3.85;1.35;;;;;;;13.06;100.00;102745.97;2615813;36;20065;-47
2022/07/17 05:34:19;;;;;;;6.22;1.25;;;;;;;13.19;100.00;102748.69;2614220;36;20027;-50
2022/07/17 05:36:49;;;;;;;3.17;1.35;;;;;;;13.41;100.00;102749.91;2613038;36;20075;-47
2022/07/17 05:39:19;;;;;;;3.53;1.50;;;;;;;13.50;100.00;102760.09;2613728;36;20031;-49
2022/07/17 05:41:48;;;;;;;2.47;1.27;;;;;;;13.63;100.00;102752.81;2613995;36;20038;-47
2022/07/17 05:44:16;;;;;;;4.82;1.70;;;;;;;13.92;100.00;102763.38;2615092;36;20034;-46
2022/07/17 05:46:44;;;;;;;5.38;1.35;;;;;;;13.99;100.00;102761.09;2614049;36;20649;-49
2022/07/17 05:49:13;;;;;;;3.65;1.13;;;;;;;14.12;100.00;102755.63;2614836;36;20548;-49
2022/07/17 05:51:41;;;;;;;2.90;1.35;;;;;;;14.27;100.00;102746.38;2613753;36;20653;-48
2022/07/17 05:54:09;;;;;;;2.63;1.23;;;;;;;14.41;100.00;102734.50;2614048;36;20065;-50
2022/07/17 05:56:40;;;;;;;3.67;1.20;;;;;;;14.77;100.00;102740.88;2614809;31;20129;-48
2022/07/17 05:59:09;;;;;;;5.50;1.02;;;;;;;14.99;100.00;102742.78;2614505;36;20042;-49
2022/07/17 06:01:37;;;;;;;5.40;1.70;;;;;;;15.10;100.00;102747.38;2614185;36;20085;-48
2022/07/17 06:04:05;;;;;;;3.50;1.20;;;;;;;15.13;100.00;102757.13;2614382;31;20563;-49
2022/07/17 06:06:34;;;;;;;2.95;0.95;;;;;;;15.05;100.00;102755.00;2614752;36;20038;-48
2022/07/17 06:09:02;;;;;;;5.50;1.45;;;;;;;15.00;100.00;102752.66;2614531;36;20589;-48
2022/07/17 06:11:31;;;;;;;1.15;0.90;;;;;;;14.82;100.00;102765.75;2614121;36;20548;-47
2022/07/17 06:14:01;;;;;;;2.38;1.00;;;;;;;15.07;100.00;102764.78;2613943;36;20046;-48
2022/07/17 06:16:30;;;;;;;3.00;1.10;;;;;;;15.18;100.00;102768.47;2614796;36;20419;-49
2022/07/17 06:18:58;;;;;;;5.23;1.37;;;;;;;15.41;100.00;102764.84;2614731;36;20030;-49
2022/07/17 06:21:26;;;;;;;4.37;1.20;;;;;;;15.62;100.00;102764.13;2614152;36;20058;-47
2022/07/17 06:23:55;;;;;;;3.30;1.17;;;;;;;15.57;100.00;102758.16;2615379;36;20772;-53
2022/07/17 06:26:23;;;;;;;2.10;1.15;;;;;;;15.68;100.00;102760.91;2614030;36;20464;-50
2022/07/17 06:28:51;;;;;;;3.28;1.17;;;;;;;15.45;100.00;102767.31;2614156;36;20550;-51
2022/07/17 06:31:23;;;;;;;1.83;0.97;;;;;;;15.58;100.00;102781.63;2614689;36;20061;-50
2022/07/17 06:33:51;;;;;;;3.20;1.10;;;;;;;15.53;100.00;102781.09;2614022;36;20034;-50
2022/07/17 06:36:20;;;;;;;4.63;1.30;;;;;;;15.68;100.00;102790.75;2614441;36;20436;-47
2022/07/17 06:38:48;;;;;;;2.85;1.20;;;;;;;15.95;100.00;102792.28;2613497;36;20042;-50
2022/07/17 06:41:16;;;;;;;1.77;1.13;;;;;;;16.26;100.00;102795.19;2615050;31;20034;-52
2022/07/17 06:43:44;;;;;;;3.07;1.47;;;;;;;16.42;100.00;102809.25;2614287;36;20910;-51
2022/07/17 06:46:13;;;;;;;3.60;1.00;;;;;;;16.42;100.00;102806.53;2614139;36;20693;-49
2022/07/17 06:48:44;;;;;;;6.47;1.20;;;;;;;17.15;100.00;102804.06;2613551;36;20030;-51
2022/07/17 06:51:12;;;;;;;4.10;1.30;;;;;;;17.11;100.00;102801.75;2614365;36;20693;-48
2022/07/17 06:53:40;;;;;;;4.70;1.30;;;;;;;17.45;100.00;102799.69;2613145;36;20034;-51
2022/07/17 06:56:08;;;;;;;2.50;0.98;;;;;;;17.44;100.00;102795.22;2612546;36;20086;-46
2022/07/17 06:58:37;;;;;;;2.13;1.03;;;;;;;17.37;100.00;102795.91;2611179;36;20182;-48
2022/07/17 07:01:05;;;;;;;2.88;1.20;;;;;;;17.70;100.00;102794.81;2613393;36;20026;-49
2022/07/17 07:03:33;;;;;;;6.83;1.43;;;;;;;17.49;100.00;102790.25;2614172;36;20046;-48
2022/07/17 07:06:04;;;;;;;2.23;0.90;;;;;;;17.77;100.00;102796.00;2614515;36;20421;-48
2022/07/17 07:08:32;;;;;;;5.05;1.20;;;;;;;17.70;100.00;102797.53;2614145;31;20046;-50
2022/07/17 07:11:01;;;;;;;4.93;1.20;;;;;;;17.64;100.00;102804.38;2614305;31;20065;-51
2022/07/17 07:13:29;;;;;;;6.40;1.30;;;;;;;17.72;100.00;102800.97;2613149;36;20057;-49
2022/07/17 07:15:57;;;;;;;1.73;0.80;;;;;;;17.69;100.00;102787.63;2614242;36;20034;-49
2022/07/17 07:18:26;;;;;;;6.90;0.90;;;;;;;17.80;100.00;102792.09;2615109;36;20499;-48
2022/07/17 07:20:54;;;;;;;2.80;0.85;;;;;;;17.98;100.00;102790.50;2613751;36;20535;-50
2022/07/17 07:23:25;;;;;;;3.00;0.90;;;;;;;18.32;100.00;102798.34;2614598;36;20488;-46
2022/07/17 07:25:54;;;;;;;2.45;0.75;;;;;;;18.56;100.00;102797.97;2614372;36;20563;-48
2022/07/17 07:28:22;;;;;;;3.90;1.00;;;;;;;18.45;100.00;102800.81;2614171;36;20034;-49
2022/07/17 07:30:50;;;;;;;1.93;0.80;;;;;;;19.00;100.00;102792.13;2614704;36;20070;-52
2022/07/17 07:33:18;;;;;;;3.53;1.00;;;;;;;18.89;100.00;102793.13;2614781;36;20796;-52
2022/07/17 07:35:47;;;;;;;1.90;1.00;;;;;;;18.86;100.00;102801.63;2613796;31;20334;-53
2022/07/17 07:38:15;;;;;;;5.05;1.02;;;;;;;18.88;100.00;102791.41;2614734;36;20065;-51
2022/07/17 07:40:46;;;;;;;6.07;1.10;;;;;;;19.14;100.00;102800.88;2614033;36;20920;-52
2022/07/17 07:43:14;;;;;;;2.28;1.02;;;;;;;19.58;100.00;102802.09;2614342;36;20022;-51
2022/07/17 07:45:43;;;;;;;3.25;0.98;;;;;;;19.43;100.00;102787.16;2614677;36;20058;-51
2022/07/17 07:48:11;;;;;;;3.85;1.60;;;;;;;19.72;100.00;102800.72;2614720;36;20180;-52
2022/07/17 07:50:39;;;;;;;3.10;1.00;;;;;;;20.00;100.00;102800.78;2614864;36;20045;-51
2022/07/17 07:53:08;;;;;;;3.17;1.48;;;;;;;19.81;100.00;102800.88;2615771;36;20125;-50
2022/07/17 07:55:36;;;;;;;1.75;0.98;;;;;;;19.52;100.00;102796.34;2615527;36;20057;-52
2022/07/17 07:58:09;;;;;;;2.30;0.80;;;;;;;19.30;100.00;102789.34;2614032;36;20099;-50
2022/07/17 08:00:38;;;;;;;3.53;0.85;;;;;;;19.73;100.00;102788.81;2614771;36;20065;-47
2022/07/17 08:03:06;;;;;;;2.97;1.00;;;;;;;19.54;100.00;102792.47;2614940;36;20081;-51
2022/07/17 08:05:35;;;;;;;3.28;1.08;;;;;;;19.56;100.00;102792.31;2614594;36;20067;-49
2022/07/17 08:08:04;;;;;;;3.78;1.00;;;;;;;19.66;100.00;102792.28;2615088;36;20049;-48
2022/07/17 08:10:33;;;;;;;1.45;0.82;;;;;;;19.83;100.00;102788.81;2614846;36;20030;-49
2022/07/17 08:13:01;;;;;;;4.80;0.98;;;;;;;20.05;100.00;102786.66;2613928;36;20045;-47
2022/07/17 08:15:32;;;;;;;4.72;0.90;;;;;;;19.80;100.00;102786.34;2615365;36;20031;-50
2022/07/17 08:18:01;;;;;;;2.10;0.80;;;;;;;19.84;100.00;102793.25;2615054;36;20038;-49
2022/07/17 08:20:29;;;;;;;2.38;1.00;;;;;;;20.04;100.00;102787.72;2615155;36;20034;-53
2022/07/17 08:22:58;;;;;;;4.15;1.00;;;;;;;20.61;100.00;102793.81;2615297;36;20544;-52
2022/07/17 08:25:26;;;;;;;3.08;0.80;;;;;;;20.21;100.00;102791.47;2614363;31;20653;-52
2022/07/17 08:27:54;;;;;;;2.17;0.80;;;;;;;19.99;100.00;102804.53;2614091;36;20594;-51
2022/07/17 08:30:24;;;;;;;3.17;0.93;;;;;;;19.75;100.00;102800.44;2613279;36;20043;-53
2022/07/17 08:32:55;;;;;;;1.42;0.90;;;;;;;20.02;100.00;102808.84;2614428;31;20598;-52
2022/07/17 08:35:23;;;;;;;2.05;0.90;;;;;;;20.45;100.00;102807.28;2615354;36;20038;-51
2022/07/17 08:37:54;;;;;;;2.25;0.80;;;;;;;20.62;100.00;102806.47;2613712;36;20051;-50
2022/07/17 08:40:25;;;;;;;3.63;0.80;;;;;;;21.13;100.00;102792.25;2612349;36;20551;-51
2022/07/17 08:42:54;;;;;;;3.17;1.15;;;;;;;20.70;100.00;102789.31;2615341;36;20481;-48
2022/07/17 08:45:22;;;;;;;;;;;;;;;20.61;100.00;102793.81;2614557;36;20507;-46
2022/07/17 08:47:56;;;;;;;3.88;1.00;;;;;;;20.67;100.00;102786.91;2614348;36;19993;-49
2022/07/17 08:50:27;;;;;;;3.90;1.00;;;;;;;20.97;100.00;102792.97;2614335;36;20641;-51
2022/07/17 08:52:56;;;;;;;2.15;0.90;;;;;;;20.93;100.00;102786.94;2611006;36;20297;-55
2022/07/17 08:55:25;;;;;;;3.35;0.90;;;;;;;20.71;100.00;102799.22;2606286;36;20443;-53
2022/07/17 08:57:53;;;;;;;3.13;1.10;;;;;;;20.72;100.00;102794.63;2609188;36;21163;-47
2022/07/17 09:00:25;;;;;;;1.92;1.00;;;;;;;20.74;100.00;102789.84;2612283;31;20038;-50
2022/07/17 09:03:01;;;;;;;2.38;1.10;;;;;;;21.09;100.00;102788.09;2613185;36;20031;-47
2022/07/17 09:05:33;;;;;;;3.78;1.27;;;;;;;21.27;100.00;102783.44;2614431;36;20037;-51
2022/07/17 09:08:01;;;;;;;1.67;0.70;;;;;;;21.42;100.00;102780.13;2613036;36;20035;-50
2022/07/17 09:10:34;;;;;;;5.88;1.10;;;;;;;22.13;98.27;102783.56;2612294;36;20571;-52
2022/07/17 09:13:03;;;;;;;2.55;1.00;;;;;;;21.61;98.43;102790.03;2614261;36;20039;-54
2022/07/17 09:15:35;;;;;;;2.35;1.20;;;;;;;22.16;98.06;102786.03;2614589;36;20046;-52
2022/07/17 09:18:06;;;;;;;4.50;1.13;;;;;;;22.02;96.08;102792.97;2612904;31;20038;-55
2022/07/17 09:20:35;;;;;;;4.18;1.15;;;;;;;22.53;88.36;102795.75;2614157;36;20061;-52
2022/07/17 09:23:06;;;;;;;4.65;1.10;;;;;;;22.20;96.70;102795.59;2614166;36;20073;-50
2022/07/17 09:25:38;;;;;;;3.63;1.00;;;;;;;22.09;89.38;102796.78;2613864;36;20542;-48
2022/07/17 09:28:09;;;;;;;3.97;1.20;;;;;;;22.33;93.36;102796.03;2612461;36;20037;-49
2022/07/17 09:30:39;;;;;;;3.92;1.17;;;;;;;22.05;97.55;102799.00;2613147;36;20029;-50
2022/07/17 09:33:15;;;;;;;4.18;1.00;;;;;;;22.33;90.19;102792.44;2612290;31;20061;-51
2022/07/17 09:35:49;;;;;;;3.08;1.30;;;;;;;22.20;86.81;102785.50;2613240;36;20057;-51
2022/07/17 09:38:27;;;;;;;5.53;1.20;;;;;;;22.54;90.21;102783.72;2610899;36;20197;-48
2022/07/17 09:43:50;;;;;;;1.48;1.00;;;;;;;22.90;91.27;102787.03;2611832;36;20054;-47
2022/07/17 09:46:20;;;;;;;1.88;1.05;;;;;;;22.91;80.48;102782.41;2612724;36;20055;-47
2022/07/17 09:48:54;;;;;;;3.58;1.25;;;;;;;22.96;81.62;102785.47;2613673;36;20034;-47
2022/07/17 09:51:27;;;;;;;2.33;1.00;;;;;;;22.85;84.74;102792.19;2613602;36;20046;-46
2022/07/17 09:53:57;;;;;;;4.50;1.13;;;;;;;23.21;76.09;102778.13;2611297;36;20043;-48
2022/07/17 09:56:27;;;;;;;1.38;0.80;;;;;;;23.69;86.49;102778.19;2611517;31;20065;-48
2022/07/17 09:58:57;;;;;;;1.65;0.85;;;;;;;23.73;76.52;102775.94;2612631;36;20193;-47
2022/07/17 10:01:25;;;;;;;3.35;0.90;;;;;;;23.71;73.97;102762.38;2613511;36;20042;-47
2022/07/17 10:03:57;;;;;;;3.83;1.17;;;;;;;23.44;77.73;102760.91;2611456;36;20900;-47
2022/07/17 10:06:26;;;;;;;2.67;1.05;;;;;;;23.79;90.11;102762.34;2601936;33;20045;-47
2022/07/17 10:08:56;;;;;;;3.28;1.10;;;;;;;23.09;81.23;102769.34;2606523;36;20485;-48
2022/07/17 10:11:26;;;;;;;1.45;0.82;;;;;;;23.71;84.23;102761.53;2615280;36;20045;-47
2022/07/17 10:13:57;;;;;;;2.13;1.00;;;;;;;23.42;76.08;102762.97;2613692;36;20037;-47
2022/07/17 10:16:27;;;;;;;4.10;1.20;;;;;;;23.58;73.67;102770.31;2612605;36;20065;-46
2022/07/17 10:19:00;;;;;;;1.92;1.02;;;;;;;23.67;69.60;102777.50;2613682;36;20070;-46
2022/07/17 10:21:32;;;;;;;3.63;1.00;;;;;;;23.35;75.74;102768.31;2614066;36;20061;-47
2022/07/17 10:24:12;;;;;;;2.83;1.20;;;;;;;23.08;70.77;102772.25;2614846;36;20587;-48
2022/07/17 10:26:43;;;;;;;2.72;1.42;;;;;;;23.74;70.50;102773.00;2613596;36;20061;-48
2022/07/17 10:29:28;;;;;;;2.60;1.10;;;;;;;23.66;77.70;102770.31;2615271;36;20046;-46
2022/07/17 10:31:56;;;;;;;3.15;1.15;;;;;;;23.52;69.88;102762.78;2614381;36;20034;-46
2022/07/17 10:34:40;;;;;;;2.58;0.95;;;;;;;23.47;69.61;102765.19;2613831;36;20055;-47
2022/07/17 10:37:23;;;;;;;2.60;1.08;;;;;;;23.90;66.43;102772.13;2613592;36;20080;-46
2022/07/17 10:40:04;;;;;;;1.83;1.38;;;;;;;23.85;68.43;102776.41;2612117;31;20081;-48
2022/07/17 10:42:58;;;;;;;2.53;1.15;;;;;;;23.67;65.44;102780.25;2614334;36;20601;-51
2022/07/17 10:45:32;;;;;;;2.90;1.05;;;;;;;23.91;65.65;102790.34;2612455;31;20543;-49
2022/07/17 10:48:03;;;;;;;2.28;1.05;;;;;;;23.75;67.10;102780.22;2611796;36;20038;-48
2022/07/17 10:50:38;;;;;;;1.80;1.05;;;;;;;24.30;73.74;102778.44;2613320;36;20038;-47
2022/07/17 10:53:13;;;;;;;2.15;1.10;;;;;;;24.10;66.09;102772.56;2614225;36;21031;-46
2022/07/17 10:55:43;;;;;;;1.58;1.10;;;;;;;24.45;67.97;102774.91;2612733;36;20030;-49
2022/07/17 10:58:24;;;;;;;3.10;1.20;;;;;;;24.37;68.80;102778.59;2613667;31;20065;-48
2022/07/17 11:01:01;;;;;;;2.38;1.10;;;;;;;24.51;66.01;102770.59;2613792;36;20038;-47
2022/07/17 11:03:29;;;;;;;3.08;1.35;;;;;;;24.41;64.89;102771.69;2611958;36;20551;-47
2022/07/17 11:06:09;;;;;;;2.60;0.95;;;;;;;24.22;68.10;102763.88;2611883;36;20030;-48
2022/07/17 11:08:38;;;;;;;2.38;1.05;;;;;;;24.68;62.34;102774.97;2627522;36;20030;-47
2022/07/17 11:11:10;;;;;;;1.33;1.00;;;;;;;24.28;61.32;102771.44;2597869;36;20034;-52
2022/07/17 11:13:39;;;;;;;3.35;1.10;;;;;;;24.13;60.48;102768.56;2610247;36;20593;-49
2022/07/17 11:16:07;;;;;;;1.73;0.90;;;;;;;24.52;61.45;102766.81;2608830;36;20062;-45
2022/07/17 11:18:37;;;;;;;2.30;1.30;;;;;;;24.70;59.87;102767.38;2603216;36;20063;-51
2022/07/17 11:21:08;;;;;;;2.20;1.02;;;;;;;25.04;61.83;102763.28;2611324;31;20527;-49
2022/07/17 11:23:37;;;;;;;3.13;1.23;;;;;;;24.71;60.76;102762.75;2607150;36;20583;-51
2022/07/17 11:26:08;;;;;;;4.65;1.10;;;;;;;24.07;60.07;102761.91;2612105;36;20038;-49
2022/07/17 11:28:41;;;;;;;2.28;1.20;;;;;;;24.42;62.40;102758.78;2615998;36;20069;-50
2022/07/17 11:31:21;;;;;;;2.28;1.40;;;;;;;24.33;61.88;102760.72;2613566;36;20559;-52
2022/07/17 11:33:53;;;;;;;1.92;1.08;;;;;;;24.67;58.50;102756.72;2612737;36;20536;-46
2022/07/17 11:36:29;;;;;;;2.75;1.35;;;;;;;24.88;58.36;102760.69;2612296;36;20038;-48